Aviston, Illinois
Current Conditions -  °F | °C
As of 6:58 PM on Thursday 18 Dec 2014 (Local Time) from KBLV Reporting Station
Overcast Overcast  
Wind Chill: 29°   Ceiling: 3100
Heat Index: 33°   Visibility: 10mi
Dew Point: 27°   Wind: 5mph
Humidity: 78%   Direction: 50°NE
Pressure: 30.27"   Gusts: NA
Location:  38.61°N, 89.61°W
Report Text: KBLV 190058Z AUTO 05004KT 10SM OVC031 01/M03 A3027 RMK AO2 SLP258 T00081026
Loading
Personal Weather Stations






























Interactive Weather Map New forecast layout! Learn more

10-Day Weather Forecast

Advertisements
Track Severe Weather on mobile